createdAt,value
2023-02-19T00:02:02.262Z,43.53
2023-02-19T00:04:32.597Z,43.46
2023-02-19T00:07:01.198Z,45.18
2023-02-19T00:09:30.332Z,45.24
2023-02-19T00:11:58.884Z,45.57
2023-02-19T00:14:27.795Z,45.86
2023-02-19T00:16:56.366Z,44.74
2023-02-19T00:19:25.433Z,45.06
2023-02-19T00:21:55.865Z,43.88
2023-02-19T00:24:24.752Z,44.39
2023-02-19T00:26:53.296Z,43.33
2023-02-19T00:29:22.740Z,43.34
2023-02-19T00:31:52.163Z,43.27
2023-02-19T00:34:21.245Z,43.37
2023-02-19T00:36:49.949Z,42.96
2023-02-19T00:39:21.518Z,43.34
2023-02-19T00:41:50.244Z,42.84
2023-02-19T00:44:19.681Z,42.80
2023-02-19T00:46:50.022Z,43.21
2023-02-19T00:49:21.338Z,43.37
2023-02-19T00:51:51.226Z,42.76
2023-02-19T00:54:22.692Z,42.10
2023-02-19T00:56:51.700Z,43.01
2023-02-19T00:59:20.599Z,42.65
2023-02-19T01:01:49.796Z,42.49
2023-02-19T01:04:19.609Z,42.48
2023-02-19T01:06:49.183Z,42.26
2023-02-19T01:09:18.128Z,42.98
2023-02-19T01:11:48.434Z,42.28
2023-02-19T01:14:17.293Z,41.75
2023-02-19T01:16:45.928Z,41.68
2023-02-19T01:19:14.843Z,42.04
2023-02-19T01:21:43.405Z,41.55
2023-02-19T01:24:12.526Z,41.41
2023-02-19T01:26:41.648Z,41.32
2023-02-19T01:29:12.051Z,41.54
2023-02-19T01:31:42.410Z,41.58
2023-02-19T01:34:12.672Z,41.52
2023-02-19T01:36:41.717Z,41.53
2023-02-19T01:39:12.478Z,41.39
2023-02-19T01:41:42.831Z,41.42
2023-02-19T01:44:44.628Z,41.42
2023-02-19T01:47:17.617Z,41.25
2023-02-19T01:49:51.355Z,41.48
2023-02-19T01:52:23.611Z,41.82
2023-02-19T01:54:53.216Z,41.43
2023-02-19T01:57:25.523Z,41.82
2023-02-19T02:00:07.542Z,41.50
2023-02-19T02:02:49.634Z,41.85
2023-02-19T02:05:26.420Z,41.70
2023-02-19T02:08:12.864Z,41.95
2023-02-19T02:10:41.592Z,42.38
2023-02-19T02:13:10.810Z,42.62
2023-02-19T02:15:49.858Z,42.31
2023-02-19T02:18:32.566Z,42.88
2023-02-19T02:21:20.184Z,42.29
2023-02-19T02:24:09.325Z,41.96
2023-02-19T02:26:53.261Z,42.16
2023-02-19T02:30:14.090Z,42.37
2023-02-19T02:32:53.531Z,42.89
2023-02-19T02:35:27.922Z,43.04
2023-02-19T02:38:01.157Z,43.16
2023-02-19T02:40:30.562Z,42.78
2023-02-19T02:43:01.993Z,42.27
2023-02-19T02:45:36.432Z,42.31
2023-02-19T02:48:22.927Z,42.40
2023-02-19T02:50:56.290Z,42.58
2023-02-19T02:53:49.262Z,42.10
2023-02-19T02:56:20.810Z,42.13
2023-02-19T02:58:51.988Z,42.72
2023-02-19T03:01:43.671Z,42.00
2023-02-19T03:04:19.349Z,41.43
2023-02-19T03:06:50.625Z,41.00
2023-02-19T03:09:30.318Z,42.14
2023-02-19T03:12:22.666Z,41.30
2023-02-19T03:15:12.614Z,42.40
2023-02-19T03:18:03.147Z,41.87
2023-02-19T03:20:37.926Z,41.57
2023-02-19T03:23:10.347Z,41.46
2023-02-19T03:25:58.869Z,41.54
2023-02-19T03:28:57.993Z,41.52
2023-02-19T03:31:31.079Z,40.92
2023-02-19T03:34:06.648Z,42.51
2023-02-19T03:36:42.237Z,42.18
2023-02-19T03:39:15.658Z,41.83
2023-02-19T03:41:52.869Z,41.89
2023-02-19T03:44:32.589Z,41.54
2023-02-19T03:47:05.836Z,41.41
2023-02-19T03:49:49.028Z,41.55
2023-02-19T03:52:26.713Z,42.80
2023-02-19T03:55:04.533Z,41.95
2023-02-19T03:57:46.681Z,42.92
2023-02-19T04:00:19.372Z,42.16
2023-02-19T04:02:55.383Z,42.98
2023-02-19T04:05:28.250Z,43.10
2023-02-19T04:08:01.749Z,43.10
2023-02-19T04:10:36.811Z,43.01
2023-02-19T04:13:12.763Z,42.52
2023-02-19T04:15:45.241Z,42.77
2023-02-19T04:18:18.136Z,43.67
2023-02-19T04:20:49.525Z,43.38
2023-02-19T04:23:24.319Z,43.23
2023-02-19T04:25:57.749Z,42.58
2023-02-19T04:28:26.331Z,42.47
2023-02-19T04:30:55.363Z,42.13
2023-02-19T04:33:24.001Z,42.54
2023-02-19T04:35:53.154Z,42.25
2023-02-19T04:38:23.174Z,42.25
2023-02-19T04:40:52.523Z,42.23
2023-02-19T04:43:21.559Z,42.27
2023-02-19T04:45:50.534Z,42.19
2023-02-19T04:48:19.558Z,42.01
2023-02-19T04:50:48.481Z,42.07
2023-02-19T04:53:16.994Z,42.32
2023-02-19T04:55:48.178Z,42.29
2023-02-19T04:58:16.779Z,42.90
2023-02-19T05:00:45.648Z,42.76
2023-02-19T05:03:14.341Z,42.38
2023-02-19T05:05:43.229Z,42.43
2023-02-19T05:08:11.821Z,42.21
2023-02-19T05:10:40.640Z,42.08
2023-02-19T05:13:10.681Z,42.37
2023-02-19T05:15:39.552Z,42.28
2023-02-19T05:18:08.097Z,42.49
2023-02-19T05:20:37.876Z,41.95
2023-02-19T05:23:06.356Z,41.89
2023-02-19T05:25:35.221Z,41.80
2023-02-19T05:30:57.951Z,42.99
2023-02-19T05:33:27.592Z,41.88
2023-02-19T05:35:57.249Z,41.59
2023-02-19T05:38:26.693Z,41.34
2023-02-19T05:40:55.397Z,41.05
2023-02-19T05:43:24.236Z,41.19
2023-02-19T05:45:52.830Z,41.18
2023-02-19T05:48:23.163Z,41.23
2023-02-19T05:50:51.699Z,41.13
2023-02-19T05:53:20.673Z,40.96
2023-02-19T05:55:49.336Z,42.29
2023-02-19T05:58:18.297Z,42.20
2023-02-19T06:00:46.892Z,42.55
2023-02-19T06:03:15.786Z,41.99
2023-02-19T06:05:45.707Z,42.70
2023-02-19T06:08:15.963Z,42.07
2023-02-19T06:10:45.153Z,41.61
2023-02-19T06:13:14.430Z,41.77
2023-02-19T06:15:43.608Z,41.33
2023-02-19T06:18:12.675Z,41.20
2023-02-19T06:20:41.334Z,41.69
2023-02-19T06:23:11.669Z,40.90
2023-02-19T06:25:40.232Z,42.12
2023-02-19T06:28:10.101Z,41.38
2023-02-19T06:30:38.647Z,41.08
2023-02-19T06:33:07.485Z,40.97
2023-02-19T06:35:35.989Z,40.45
2023-02-19T06:38:04.850Z,40.12
2023-02-19T06:40:34.795Z,40.23
2023-02-19T06:43:03.876Z,39.74
2023-02-19T06:45:32.477Z,39.42
2023-02-19T06:48:01.703Z,39.17
2023-02-19T06:50:30.309Z,38.80
2023-02-19T06:52:59.343Z,38.95
2023-02-19T06:55:28.110Z,38.17
2023-02-19T06:57:59.001Z,38.23
2023-02-19T07:00:27.536Z,38.02
2023-02-19T07:02:57.714Z,37.38
2023-02-19T07:05:26.401Z,37.84
2023-02-19T07:07:55.293Z,37.25
2023-02-19T07:10:24.060Z,37.30
2023-02-19T07:12:53.192Z,36.61
2023-02-19T07:15:23.176Z,36.75
2023-02-19T07:17:51.973Z,36.19
2023-02-19T07:20:20.913Z,36.01
2023-02-19T07:22:49.969Z,36.06
2023-02-19T07:25:18.729Z,36.00
2023-02-19T07:27:48.244Z,36.16
2023-02-19T07:30:16.926Z,35.43
2023-02-19T07:32:47.189Z,35.33
2023-02-19T07:35:16.032Z,35.68
2023-02-19T07:37:44.875Z,36.09
2023-02-19T07:40:13.457Z,35.47
2023-02-19T07:42:42.406Z,35.44
2023-02-19T07:45:11.240Z,35.61
2023-02-19T07:47:40.065Z,35.07
2023-02-19T07:50:12.974Z,35.00
2023-02-19T07:52:43.082Z,35.16
2023-02-19T07:55:11.760Z,34.87
2023-02-19T07:57:40.639Z,35.12
2023-02-19T08:00:10.061Z,36.06
2023-02-19T08:02:59.024Z,36.03
2023-02-19T08:05:29.387Z,36.17
2023-02-19T08:07:59.767Z,36.23
2023-02-19T08:10:46.159Z,35.99
2023-02-19T08:13:26.308Z,35.81
2023-02-19T08:16:04.640Z,35.74
2023-02-19T08:18:43.642Z,35.33
2023-02-19T08:21:13.794Z,35.28
2023-02-19T08:23:42.719Z,35.84
2023-02-19T08:26:11.345Z,34.99
2023-02-19T08:28:40.659Z,35.57
2023-02-19T08:31:11.484Z,35.83
2023-02-19T08:33:40.847Z,36.59
2023-02-19T08:36:10.907Z,36.70
2023-02-19T08:38:41.316Z,36.15
2023-02-19T08:41:12.407Z,35.98
2023-02-19T08:43:42.273Z,35.62
2023-02-19T08:46:12.574Z,35.45
2023-02-19T08:48:41.580Z,35.72
2023-02-19T08:51:12.290Z,35.87
2023-02-19T08:53:43.131Z,35.20
2023-02-19T08:56:14.340Z,34.90
2023-02-19T08:58:44.402Z,35.66
2023-02-19T09:01:15.464Z,35.00
2023-02-19T09:03:44.599Z,35.42
2023-02-19T09:06:16.859Z,35.52
2023-02-19T09:08:47.258Z,36.34
2023-02-19T09:11:16.330Z,35.52
2023-02-19T09:13:45.720Z,35.63
2023-02-19T09:16:14.418Z,35.87
2023-02-19T09:18:45.821Z,35.33
2023-02-19T09:21:14.483Z,35.48
2023-02-19T09:23:43.344Z,35.61
2023-02-19T09:26:14.100Z,35.71
2023-02-19T09:28:43.451Z,36.46
2023-02-19T09:31:14.562Z,36.19
2023-02-19T09:33:44.811Z,35.26
2023-02-19T09:36:14.132Z,35.79
2023-02-19T09:38:43.907Z,34.94
2023-02-19T09:41:23.635Z,34.67
2023-02-19T09:43:53.261Z,34.64
2023-02-19T09:46:31.900Z,34.18
2023-02-19T09:49:06.388Z,36.63
2023-02-19T09:51:37.788Z,37.43
2023-02-19T09:54:13.747Z,36.95
2023-02-19T09:56:43.833Z,37.30
2023-02-19T09:59:21.445Z,35.94
2023-02-19T10:01:58.799Z,37.55
2023-02-19T10:04:28.408Z,38.72
2023-02-19T10:07:03.457Z,38.54
2023-02-19T10:09:32.627Z,39.04
2023-02-19T10:12:03.077Z,39.42
2023-02-19T10:14:37.485Z,39.29
2023-02-19T10:17:08.404Z,38.50
2023-02-19T10:19:37.921Z,37.06
2023-02-19T10:22:06.834Z,37.50
2023-02-19T10:24:38.331Z,36.78
2023-02-19T10:27:13.304Z,37.23
2023-02-19T10:29:44.235Z,37.65
2023-02-19T10:32:14.766Z,38.27
2023-02-19T10:34:43.634Z,37.09
2023-02-19T10:37:16.811Z,37.80
2023-02-19T10:39:48.140Z,37.43
2023-02-19T10:42:21.004Z,36.88
2023-02-19T10:44:54.983Z,36.82
2023-02-19T10:47:27.047Z,36.95
2023-02-19T10:50:00.796Z,37.04
2023-02-19T10:52:34.466Z,36.46
2023-02-19T10:55:18.179Z,36.22
2023-02-19T10:57:50.437Z,36.60
2023-02-19T11:00:27.048Z,35.85
2023-02-19T11:03:15.223Z,36.01
2023-02-19T11:05:56.688Z,35.21
2023-02-19T11:08:25.761Z,35.15
2023-02-19T11:10:54.763Z,35.37
2023-02-19T11:13:32.313Z,35.56
2023-02-19T11:16:02.124Z,36.17
2023-02-19T11:18:33.039Z,36.07
2023-02-19T11:21:04.676Z,36.36
2023-02-19T11:23:37.260Z,36.41
2023-02-19T11:26:17.762Z,35.66
2023-02-19T11:28:56.585Z,35.52
2023-02-19T11:31:28.046Z,36.08
2023-02-19T11:33:59.413Z,35.46
2023-02-19T11:36:34.196Z,35.42
2023-02-19T11:39:20.825Z,35.67
2023-02-19T11:42:16.438Z,35.45
2023-02-19T11:45:03.961Z,34.92
2023-02-19T11:47:47.287Z,33.94
2023-02-19T11:50:24.793Z,34.02
2023-02-19T11:53:04.522Z,34.44
2023-02-19T11:55:44.160Z,34.18
2023-02-19T11:58:36.140Z,34.23
2023-02-19T12:01:15.675Z,33.94
2023-02-19T12:04:29.220Z,32.90
2023-02-19T12:07:11.174Z,32.63
2023-02-19T12:09:52.688Z,32.16
2023-02-19T12:12:37.720Z,32.69
2023-02-19T12:15:23.008Z,34.10
2023-02-19T12:18:24.787Z,34.37
2023-02-19T12:21:03.146Z,34.18
2023-02-19T12:23:50.028Z,34.08
2023-02-19T12:26:26.056Z,34.28
2023-02-19T12:29:22.009Z,34.60
2023-02-19T12:32:33.545Z,33.99
2023-02-19T12:35:32.768Z,34.47
2023-02-19T12:38:16.156Z,34.68
2023-02-19T12:40:59.471Z,33.52
2023-02-19T12:43:31.096Z,33.00
2023-02-19T12:46:04.203Z,33.35
2023-02-19T12:48:40.311Z,33.89
2023-02-19T12:51:18.672Z,33.58
2023-02-19T12:53:53.926Z,32.85
2023-02-19T12:56:26.546Z,33.48
2023-02-19T12:59:00.168Z,34.22
2023-02-19T13:01:33.034Z,34.71
2023-02-19T13:04:19.531Z,35.35
2023-02-19T13:06:55.164Z,34.56
2023-02-19T13:09:34.063Z,34.14
2023-02-19T13:12:08.159Z,34.66
2023-02-19T13:14:41.992Z,34.64
2023-02-19T13:17:22.273Z,34.66
2023-02-19T13:19:56.710Z,34.55
2023-02-19T13:22:50.151Z,34.01
2023-02-19T13:25:22.377Z,34.72
2023-02-19T13:28:06.397Z,34.42
2023-02-19T13:31:02.551Z,33.89
2023-02-19T13:33:59.812Z,33.25
2023-02-19T13:36:31.228Z,33.06
2023-02-19T13:39:01.169Z,32.91
2023-02-19T13:41:34.927Z,33.52
2023-02-19T13:44:06.234Z,34.36
2023-02-19T13:46:39.310Z,34.52
2023-02-19T13:49:43.551Z,34.46
2023-02-19T13:52:43.352Z,34.66
2023-02-19T13:55:49.724Z,33.93
2023-02-19T13:58:52.685Z,33.85
2023-02-19T14:02:12.910Z,33.41
2023-02-19T14:04:47.485Z,32.79
2023-02-19T14:07:38.549Z,32.70
2023-02-19T14:10:14.199Z,33.07
2023-02-19T14:12:42.991Z,32.90
2023-02-19T14:15:44.334Z,32.53
2023-02-19T14:18:46.313Z,33.10
2023-02-19T14:21:25.610Z,32.50
2023-02-19T14:23:57.090Z,32.39
2023-02-19T14:26:27.911Z,32.66
2023-02-19T14:28:57.068Z,32.68
2023-02-19T14:31:30.222Z,32.96
2023-02-19T14:34:04.335Z,32.51
2023-02-19T14:37:10.217Z,32.45
2023-02-19T14:39:40.398Z,32.48
2023-02-19T14:42:17.827Z,33.04
2023-02-19T14:44:51.450Z,34.05
2023-02-19T14:47:24.134Z,34.41
2023-02-19T14:49:59.829Z,34.54
2023-02-19T14:52:34.040Z,34.47
2023-02-19T14:55:10.121Z,34.27
2023-02-19T14:57:42.210Z,34.10
2023-02-19T15:00:25.049Z,34.20
2023-02-19T15:02:57.597Z,34.60
2023-02-19T15:05:29.645Z,34.88
2023-02-19T15:08:02.609Z,34.77
2023-02-19T15:10:34.610Z,35.65
2023-02-19T15:13:06.965Z,35.55
2023-02-19T15:15:40.173Z,35.33
2023-02-19T15:18:09.370Z,35.33
2023-02-19T15:20:39.836Z,35.78
2023-02-19T15:23:09.479Z,36.17
2023-02-19T15:25:39.883Z,36.04
2023-02-19T15:28:29.674Z,36.33
2023-02-19T15:31:16.343Z,36.74
2023-02-19T15:33:52.752Z,36.91
2023-02-19T15:36:35.125Z,37.03
2023-02-19T15:39:04.308Z,36.96
2023-02-19T15:41:35.952Z,36.63
2023-02-19T15:44:21.529Z,36.87
2023-02-19T15:46:51.007Z,36.96
2023-02-19T15:49:24.218Z,37.20
2023-02-19T15:51:59.177Z,37.00
2023-02-19T15:54:32.122Z,37.90
2023-02-19T15:57:07.914Z,37.96
2023-02-19T15:59:42.657Z,37.74
2023-02-19T16:02:14.585Z,38.55
2023-02-19T16:04:45.616Z,38.37
2023-02-19T16:07:26.448Z,38.81
2023-02-19T16:10:18.686Z,38.88
2023-02-19T16:12:56.549Z,39.00
2023-02-19T16:15:25.844Z,39.12
2023-02-19T16:17:54.906Z,38.85
2023-02-19T16:20:27.481Z,38.72
2023-02-19T16:23:02.698Z,39.02
2023-02-19T16:25:38.576Z,38.55
2023-02-19T16:28:13.550Z,38.58
2023-02-19T16:30:43.177Z,38.63
2023-02-19T16:33:38.867Z,38.41
2023-02-19T16:36:19.730Z,37.74
2023-02-19T16:39:14.260Z,37.52
2023-02-19T16:42:14.669Z,39.24
2023-02-19T16:44:44.132Z,39.85
2023-02-19T16:47:29.574Z,39.59
2023-02-19T16:50:00.525Z,39.70
2023-02-19T16:52:30.292Z,39.38
2023-02-19T16:55:00.343Z,39.25
2023-02-19T16:57:29.545Z,39.38
2023-02-19T16:59:58.072Z,38.97
2023-02-19T17:02:27.213Z,38.34
2023-02-19T17:04:55.955Z,38.20
2023-02-19T17:07:26.071Z,37.58
2023-02-19T17:09:54.753Z,38.23
2023-02-19T17:12:25.127Z,37.76
2023-02-19T17:14:53.616Z,38.39
2023-02-19T17:17:22.323Z,38.78
2023-02-19T17:19:50.891Z,38.97
2023-02-19T17:22:19.811Z,39.02
2023-02-19T17:24:48.466Z,39.98
2023-02-19T17:27:17.538Z,40.48
2023-02-19T17:29:47.687Z,40.79
2023-02-19T17:32:16.536Z,40.67
2023-02-19T17:34:49.466Z,40.78
2023-02-19T17:37:18.484Z,40.84
2023-02-19T17:39:47.086Z,40.61
2023-02-19T17:42:16.337Z,40.70
2023-02-19T17:44:46.806Z,41.28
2023-02-19T17:47:17.018Z,41.43
2023-02-19T17:49:45.516Z,41.61
2023-02-19T17:52:17.681Z,41.69
2023-02-19T17:54:46.616Z,42.25
2023-02-19T17:57:15.399Z,42.22
2023-02-19T17:59:44.055Z,42.72
2023-02-19T18:02:13.097Z,42.97
2023-02-19T18:04:43.026Z,42.71
2023-02-19T18:07:11.881Z,43.08
2023-02-19T18:09:41.350Z,43.71
2023-02-19T18:12:10.505Z,43.53
2023-02-19T18:14:38.989Z,43.85
2023-02-19T18:17:08.067Z,44.00
2023-02-19T18:19:36.615Z,44.26
2023-02-19T18:22:06.938Z,44.17
2023-02-19T18:24:35.605Z,44.51
2023-02-19T18:27:04.638Z,44.29
2023-02-19T18:29:35.064Z,44.69
2023-02-19T18:32:04.421Z,44.79
2023-02-19T18:34:33.239Z,44.23
2023-02-19T18:37:02.219Z,44.42
2023-02-19T18:39:32.166Z,45.27
2023-02-19T18:42:02.226Z,45.08
2023-02-19T18:44:30.827Z,45.29
2023-02-19T18:46:59.748Z,44.88
2023-02-19T18:49:29.632Z,45.04
2023-02-19T18:51:59.398Z,43.87
2023-02-19T18:54:28.683Z,43.27
2023-02-19T18:57:00.683Z,42.72
2023-02-19T18:59:29.180Z,41.81
2023-02-19T19:01:58.199Z,41.79
2023-02-19T19:04:26.873Z,41.06
2023-02-19T19:06:55.809Z,40.66
2023-02-19T19:09:24.646Z,40.56
2023-02-19T19:11:53.742Z,40.86
2023-02-19T19:14:23.667Z,40.45
2023-02-19T19:16:52.571Z,40.02
2023-02-19T19:19:21.124Z,39.87
2023-02-19T19:21:53.304Z,40.82
2023-02-19T19:24:23.350Z,41.08
2023-02-19T19:26:53.187Z,40.86
2023-02-19T19:29:23.956Z,41.22
2023-02-19T19:31:53.071Z,43.00
2023-02-19T19:34:21.685Z,42.50
2023-02-19T19:36:51.278Z,41.23
2023-02-19T19:39:19.888Z,41.54
2023-02-19T19:41:54.838Z,41.92
2023-02-19T19:44:25.152Z,42.94
2023-02-19T19:46:55.445Z,43.98
2023-02-19T19:49:24.460Z,43.84
2023-02-19T19:51:53.552Z,43.65
2023-02-19T19:54:22.195Z,43.70
2023-02-19T19:56:51.096Z,45.28
2023-02-19T19:59:19.962Z,44.84
2023-02-19T20:01:51.907Z,44.07
2023-02-19T20:04:21.519Z,44.68
2023-02-19T20:06:51.086Z,44.67
2023-02-19T20:09:20.113Z,44.16
2023-02-19T20:11:51.748Z,43.35
2023-02-19T20:14:22.161Z,42.98
2023-02-19T20:16:52.882Z,42.75
2023-02-19T20:19:21.779Z,42.13
2023-02-19T20:21:52.113Z,41.75
2023-02-19T20:24:24.207Z,41.87
2023-02-19T20:26:58.497Z,41.89
2023-02-19T20:29:27.933Z,42.36
2023-02-19T20:32:00.294Z,42.34
2023-02-19T20:34:29.477Z,42.81
2023-02-19T20:36:58.810Z,42.29
2023-02-19T20:39:29.349Z,41.90
2023-02-19T20:41:59.039Z,42.32
2023-02-19T20:44:29.227Z,42.38
2023-02-19T20:47:00.558Z,43.03
2023-02-19T20:49:31.388Z,42.44
2023-02-19T20:52:02.387Z,42.50
2023-02-19T20:54:32.719Z,42.96
2023-02-19T20:57:04.053Z,42.82
2023-02-19T20:59:35.570Z,43.77
2023-02-19T21:02:08.551Z,44.46
2023-02-19T21:04:39.124Z,45.13
2023-02-19T21:07:08.047Z,44.33
2023-02-19T21:09:36.600Z,44.16
2023-02-19T21:12:05.931Z,43.85
2023-02-19T21:14:34.594Z,43.27
2023-02-19T21:17:03.434Z,42.93
2023-02-19T21:19:33.534Z,46.01
2023-02-19T21:22:02.388Z,48.65
2023-02-19T21:24:32.706Z,51.32
2023-02-19T21:27:01.741Z,61.37
2023-02-19T21:29:30.402Z,72.76
2023-02-19T21:31:59.916Z,75.69
2023-02-19T21:34:30.464Z,76.62
2023-02-19T21:37:01.005Z,77.19
2023-02-19T21:39:31.350Z,77.22
2023-02-19T21:42:00.390Z,77.88
2023-02-19T21:44:29.372Z,76.71
2023-02-19T21:46:58.303Z,76.67
2023-02-19T21:49:27.566Z,77.37
2023-02-19T21:51:56.487Z,77.84
2023-02-19T21:54:26.731Z,77.56
2023-02-19T21:56:55.941Z,76.22
2023-02-19T21:59:24.584Z,76.31
2023-02-19T22:01:53.524Z,75.48
2023-02-19T22:04:24.610Z,72.95
2023-02-19T22:06:56.259Z,71.31
2023-02-19T22:09:26.401Z,72.50
2023-02-19T22:11:55.319Z,71.25
2023-02-19T22:14:23.896Z,70.30
2023-02-19T22:16:52.908Z,68.92
2023-02-19T22:19:21.542Z,67.90
2023-02-19T22:21:50.645Z,68.67
2023-02-19T22:24:21.844Z,66.68
2023-02-19T22:26:56.796Z,67.01
2023-02-19T22:29:25.748Z,66.68
2023-02-19T22:31:54.869Z,67.72
2023-02-19T22:34:23.791Z,66.97
2023-02-19T22:36:52.789Z,66.62
2023-02-19T22:39:23.782Z,65.95
2023-02-19T22:41:54.485Z,64.63
2023-02-19T22:44:23.246Z,65.52
2023-02-19T22:46:54.319Z,63.72
2023-02-19T22:49:24.060Z,63.05
2023-02-19T22:51:56.604Z,62.76
2023-02-19T22:54:27.148Z,64.16
2023-02-19T22:56:57.493Z,64.02
2023-02-19T22:59:26.091Z,64.00
2023-02-19T23:01:55.665Z,63.79
2023-02-19T23:04:26.364Z,64.13
2023-02-19T23:06:55.436Z,64.49
2023-02-19T23:09:26.738Z,64.55
2023-02-19T23:12:04.123Z,64.76
2023-02-19T23:14:32.960Z,63.38
2023-02-19T23:17:02.051Z,63.24
2023-02-19T23:19:30.792Z,64.73
2023-02-19T23:22:00.396Z,62.62
2023-02-19T23:24:29.038Z,63.04
2023-02-19T23:26:59.653Z,62.39
2023-02-19T23:29:30.981Z,62.91
2023-02-19T23:32:00.913Z,62.73
2023-02-19T23:34:29.596Z,62.24
2023-02-19T23:36:59.712Z,63.15
2023-02-19T23:39:28.316Z,63.09
2023-02-19T23:41:58.806Z,63.02
2023-02-19T23:44:27.663Z,63.31
2023-02-19T23:46:58.118Z,64.01
2023-02-19T23:49:26.656Z,63.70
2023-02-19T23:51:55.544Z,64.75
2023-02-19T23:54:24.191Z,64.79
2023-02-19T23:56:53.065Z,64.16
2023-02-19T23:59:21.768Z,62.71
